createdAt,value
2022-11-16T00:02:08.442Z,62.33
2022-11-16T00:04:36.009Z,61.89
2022-11-16T00:07:03.372Z,62.02
2022-11-16T00:09:32.151Z,62.18
2022-11-16T00:12:04.315Z,62.33
2022-11-16T00:14:35.657Z,62.46
2022-11-16T00:17:04.310Z,62.33
2022-11-16T00:19:31.557Z,62.23
2022-11-16T00:21:58.972Z,62.14
2022-11-16T00:24:26.053Z,62.26
2022-11-16T00:26:56.158Z,62.08
2022-11-16T00:29:26.794Z,62.05
2022-11-16T00:31:55.483Z,61.87
2022-11-16T00:34:23.882Z,62.11
2022-11-16T00:36:51.578Z,61.92
2022-11-16T00:39:19.951Z,61.87
2022-11-16T00:41:48.238Z,61.79
2022-11-16T00:44:15.455Z,61.84
2022-11-16T00:46:43.407Z,61.96
2022-11-16T00:49:11.000Z,61.96
2022-11-16T00:51:38.436Z,61.77
2022-11-16T00:54:07.929Z,61.93
2022-11-16T00:56:37.618Z,61.84
2022-11-16T00:59:05.760Z,61.87
2022-11-16T01:01:33.195Z,61.97
2022-11-16T01:04:00.623Z,62.06
2022-11-16T01:06:27.722Z,62.04
2022-11-16T01:08:54.812Z,62.07
2022-11-16T01:11:42.291Z,61.75
2022-11-16T01:14:10.426Z,61.69
2022-11-16T01:16:37.563Z,61.93
2022-11-16T01:19:05.515Z,61.78
2022-11-16T01:21:33.244Z,62.02
2022-11-16T01:24:00.408Z,62.12
2022-11-16T01:26:27.649Z,61.78
2022-11-16T01:28:54.819Z,62.07
2022-11-16T01:31:22.276Z,61.79
2022-11-16T01:33:51.698Z,61.79
2022-11-16T01:36:25.131Z,61.70
2022-11-16T01:38:53.564Z,61.86
2022-11-16T01:41:26.020Z,61.82
2022-11-16T01:44:31.862Z,62.17
2022-11-16T01:47:13.206Z,61.66
2022-11-16T01:49:53.623Z,62.02
2022-11-16T01:52:31.475Z,61.91
2022-11-16T01:54:59.348Z,62.00
2022-11-16T01:57:36.025Z,61.95
2022-11-16T02:00:10.597Z,61.79
2022-11-16T02:03:03.672Z,61.98
2022-11-16T02:06:01.237Z,61.79
2022-11-16T02:09:37.306Z,61.97
2022-11-16T02:12:37.861Z,61.88
2022-11-16T02:15:23.227Z,61.77
2022-11-16T02:18:25.604Z,62.15
2022-11-16T02:21:26.758Z,61.98
2022-11-16T02:24:40.588Z,62.04
2022-11-16T02:27:38.424Z,62.18
2022-11-16T02:30:06.462Z,62.02
2022-11-16T02:33:04.880Z,62.10
2022-11-16T02:35:46.758Z,62.00
2022-11-16T02:38:21.044Z,62.31
2022-11-16T02:40:55.088Z,62.11
2022-11-16T02:43:36.532Z,62.20
2022-11-16T02:46:10.934Z,62.14
2022-11-16T02:48:50.070Z,62.26
2022-11-16T02:51:19.069Z,62.17
2022-11-16T02:54:15.599Z,62.02
2022-11-16T02:57:09.278Z,62.23
2022-11-16T02:59:43.380Z,62.30
2022-11-16T03:02:25.607Z,62.50
2022-11-16T03:05:20.587Z,62.60
2022-11-16T03:08:02.215Z,62.39
2022-11-16T03:10:50.282Z,62.47
2022-11-16T03:13:19.107Z,62.27
2022-11-16T03:15:48.355Z,62.42
2022-11-16T03:18:18.977Z,62.45
2022-11-16T03:20:48.374Z,62.42
2022-11-16T03:23:15.611Z,62.30
2022-11-16T03:25:51.995Z,62.42
2022-11-16T03:28:35.654Z,62.45
2022-11-16T03:31:14.720Z,62.19
2022-11-16T03:33:57.573Z,61.87
2022-11-16T03:36:35.923Z,61.81
2022-11-16T03:39:10.713Z,61.65
2022-11-16T03:41:42.307Z,61.55
2022-11-16T03:44:13.609Z,61.09
2022-11-16T03:46:43.367Z,61.14
2022-11-16T03:49:12.851Z,61.16
2022-11-16T03:51:41.020Z,60.83
2022-11-16T03:54:08.249Z,60.90
2022-11-16T03:56:36.368Z,60.86
2022-11-16T03:59:03.705Z,60.81
2022-11-16T04:01:31.640Z,60.67
2022-11-16T04:03:59.956Z,60.39
2022-11-16T04:06:45.533Z,60.21
2022-11-16T04:09:31.224Z,60.11
2022-11-16T04:12:16.851Z,60.03
2022-11-16T04:15:02.730Z,60.05
2022-11-16T04:17:51.433Z,60.10
2022-11-16T04:20:37.458Z,60.03
2022-11-16T04:23:29.860Z,59.88
2022-11-16T04:25:57.675Z,59.77
2022-11-16T04:28:30.817Z,59.75
2022-11-16T04:31:23.713Z,59.70
2022-11-16T04:34:22.876Z,59.56
2022-11-16T04:37:11.645Z,59.21
2022-11-16T04:39:40.236Z,59.11
2022-11-16T04:42:17.208Z,59.05
2022-11-16T04:45:04.915Z,59.18
2022-11-16T04:47:37.778Z,59.17
2022-11-16T04:50:05.824Z,59.10
2022-11-16T04:52:32.912Z,59.04
2022-11-16T04:55:00.069Z,58.64
2022-11-16T04:57:28.681Z,58.75
2022-11-16T04:59:56.780Z,58.84
2022-11-16T05:02:24.608Z,58.52
2022-11-16T05:04:56.035Z,58.84
2022-11-16T05:07:24.408Z,58.70
2022-11-16T05:09:55.436Z,58.34
2022-11-16T05:12:27.923Z,58.23
2022-11-16T05:14:59.176Z,57.77
2022-11-16T05:17:29.430Z,57.52
2022-11-16T05:20:18.391Z,57.37
2022-11-16T05:22:58.864Z,57.13
2022-11-16T05:25:36.118Z,56.63
2022-11-16T05:28:05.858Z,56.62
2022-11-16T05:30:36.823Z,56.69
2022-11-16T05:33:04.580Z,56.49
2022-11-16T05:35:34.975Z,56.68
2022-11-16T05:38:02.395Z,56.81
2022-11-16T05:40:32.968Z,56.34
2022-11-16T05:43:00.861Z,56.32
2022-11-16T05:45:30.974Z,56.64
2022-11-16T05:47:59.975Z,56.60
2022-11-16T05:50:27.152Z,56.55
2022-11-16T05:53:06.544Z,56.72
2022-11-16T05:55:36.144Z,56.52
2022-11-16T05:58:03.250Z,56.43
2022-11-16T06:00:30.416Z,56.47
2022-11-16T06:02:59.169Z,56.65
2022-11-16T06:05:30.576Z,56.63
2022-11-16T06:07:59.015Z,56.69
2022-11-16T06:10:26.393Z,56.47
2022-11-16T06:12:54.186Z,56.28
2022-11-16T06:15:23.655Z,56.05
2022-11-16T06:17:50.768Z,56.24
2022-11-16T06:20:17.873Z,56.33
2022-11-16T06:22:45.881Z,56.18
2022-11-16T06:25:13.842Z,56.15
2022-11-16T06:27:43.738Z,55.89
2022-11-16T06:30:14.691Z,55.80
2022-11-16T06:32:41.836Z,55.73
2022-11-16T06:35:10.132Z,55.84
2022-11-16T06:37:38.499Z,55.38
2022-11-16T06:40:07.443Z,55.19
2022-11-16T06:42:37.541Z,55.18
2022-11-16T06:45:05.290Z,55.29
2022-11-16T06:47:38.118Z,55.62
2022-11-16T06:50:05.981Z,55.30
2022-11-16T06:52:34.291Z,55.55
2022-11-16T06:55:01.965Z,55.00
2022-11-16T06:57:35.706Z,55.02
2022-11-16T07:00:05.860Z,54.70
2022-11-16T07:02:41.298Z,55.25
2022-11-16T07:05:12.757Z,55.08
2022-11-16T07:07:41.049Z,54.95
2022-11-16T07:10:09.184Z,54.89
2022-11-16T07:12:36.839Z,54.37
2022-11-16T07:15:06.164Z,54.34
2022-11-16T07:17:36.765Z,54.34
2022-11-16T07:20:04.420Z,54.34
2022-11-16T07:22:32.776Z,54.32
2022-11-16T07:25:00.320Z,54.08
2022-11-16T07:27:27.568Z,53.83
2022-11-16T07:29:54.672Z,53.75
2022-11-16T07:32:42.133Z,53.51
2022-11-16T07:35:09.345Z,53.37
2022-11-16T07:37:38.330Z,53.21
2022-11-16T07:40:07.770Z,52.98
2022-11-16T07:42:35.338Z,53.16
2022-11-16T07:45:28.972Z,52.88
2022-11-16T07:48:05.632Z,53.08
2022-11-16T07:50:52.637Z,52.96
2022-11-16T07:53:20.845Z,53.02
2022-11-16T07:55:54.609Z,52.94
2022-11-16T07:58:24.073Z,52.62
2022-11-16T08:00:51.696Z,52.49
2022-11-16T08:03:23.403Z,52.31
2022-11-16T08:06:00.538Z,52.15
2022-11-16T08:08:28.429Z,51.91
2022-11-16T08:11:07.511Z,52.29
2022-11-16T08:13:37.832Z,52.09
2022-11-16T08:16:10.500Z,51.98
2022-11-16T08:18:39.726Z,51.71
2022-11-16T08:21:10.269Z,51.35
2022-11-16T08:23:40.355Z,51.21
2022-11-16T08:26:15.371Z,51.36
2022-11-16T08:28:51.039Z,51.06
2022-11-16T08:31:26.966Z,50.85
2022-11-16T08:34:00.940Z,50.68
2022-11-16T08:36:28.813Z,50.86
2022-11-16T08:38:56.010Z,50.67
2022-11-16T08:41:24.854Z,50.13
2022-11-16T08:43:53.553Z,49.73
2022-11-16T08:46:22.591Z,50.03
2022-11-16T08:48:58.506Z,49.69
2022-11-16T08:51:26.629Z,49.54
2022-11-16T08:54:00.598Z,49.53
2022-11-16T08:56:30.171Z,49.46
2022-11-16T08:58:59.447Z,49.18
2022-11-16T09:01:30.534Z,49.11
2022-11-16T09:03:57.808Z,48.79
2022-11-16T09:06:27.064Z,48.81
2022-11-16T09:08:56.052Z,48.52
2022-11-16T09:11:25.361Z,48.30
2022-11-16T09:13:54.969Z,48.67
2022-11-16T09:16:22.692Z,48.00
2022-11-16T09:18:51.959Z,47.77
2022-11-16T09:21:25.889Z,47.96
2022-11-16T09:23:54.438Z,47.89
2022-11-16T09:26:23.267Z,47.62
2022-11-16T09:28:59.659Z,47.36
2022-11-16T09:31:28.811Z,47.46
2022-11-16T09:33:58.869Z,47.42
2022-11-16T09:36:29.692Z,47.48
2022-11-16T09:42:00.703Z,47.53
2022-11-16T09:45:09.112Z,47.40
2022-11-16T09:47:49.829Z,47.31
2022-11-16T09:50:40.700Z,47.46
2022-11-16T09:53:39.800Z,47.13
2022-11-16T09:56:29.252Z,47.42
2022-11-16T09:59:16.686Z,47.10
2022-11-16T10:02:27.374Z,46.96
2022-11-16T10:05:03.628Z,46.99
2022-11-16T10:07:41.946Z,46.65
2022-11-16T10:10:28.653Z,46.68
2022-11-16T10:13:32.916Z,46.54
2022-11-16T10:16:41.680Z,46.34
2022-11-16T10:19:42.308Z,46.09
2022-11-16T10:22:59.394Z,46.18
2022-11-16T10:25:39.069Z,46.39
2022-11-16T10:28:43.861Z,46.51
2022-11-16T10:31:45.134Z,46.45
2022-11-16T10:34:22.892Z,46.73
2022-11-16T10:36:50.262Z,46.46
2022-11-16T10:39:20.762Z,46.17
2022-11-16T10:41:53.813Z,46.09
2022-11-16T10:44:37.835Z,46.27
2022-11-16T10:47:15.424Z,46.21
2022-11-16T10:50:10.077Z,45.84
2022-11-16T10:52:37.391Z,46.01
2022-11-16T10:55:04.997Z,45.92
2022-11-16T10:58:02.673Z,46.05
2022-11-16T11:00:51.786Z,46.08
2022-11-16T11:03:32.260Z,45.62
2022-11-16T11:06:00.006Z,45.31
2022-11-16T11:08:31.692Z,45.42
2022-11-16T11:11:23.227Z,45.61
2022-11-16T11:14:12.822Z,45.41
2022-11-16T11:16:41.572Z,45.56
2022-11-16T11:19:29.527Z,45.29
2022-11-16T11:22:00.432Z,45.08
2022-11-16T11:24:43.888Z,45.01
2022-11-16T11:27:12.407Z,44.95
2022-11-16T11:29:43.197Z,44.65
2022-11-16T11:32:24.448Z,44.54
2022-11-16T11:34:54.435Z,44.88
2022-11-16T11:37:38.375Z,44.38
2022-11-16T11:40:07.786Z,44.33
2022-11-16T11:42:34.999Z,44.33
2022-11-16T11:45:13.172Z,44.54
2022-11-16T11:47:58.730Z,44.53
2022-11-16T11:50:39.197Z,44.43
2022-11-16T11:53:47.622Z,44.26
2022-11-16T11:56:15.571Z,44.46
2022-11-16T11:58:43.526Z,44.61
2022-11-16T12:01:27.269Z,43.85
2022-11-16T12:04:21.184Z,44.02
2022-11-16T12:07:10.403Z,43.88
2022-11-16T12:09:46.016Z,43.17
2022-11-16T12:12:15.815Z,43.48
2022-11-16T12:15:22.721Z,43.28
2022-11-16T12:18:16.626Z,43.68
2022-11-16T12:21:08.172Z,43.90
2022-11-16T12:24:07.337Z,44.25
2022-11-16T12:26:52.485Z,44.11
2022-11-16T12:30:30.476Z,43.82
2022-11-16T12:33:16.450Z,43.68
2022-11-16T12:35:58.486Z,43.75
2022-11-16T12:39:09.742Z,43.91
2022-11-16T12:42:12.965Z,43.79
2022-11-16T12:45:32.253Z,43.83
2022-11-16T12:48:25.581Z,43.77
2022-11-16T12:51:15.681Z,44.11
2022-11-16T12:54:29.301Z,44.41
2022-11-16T12:57:22.164Z,44.89
2022-11-16T13:00:17.824Z,44.39
2022-11-16T13:03:20.412Z,44.62
2022-11-16T13:05:59.488Z,44.96
2022-11-16T13:09:02.104Z,46.05
2022-11-16T13:11:55.814Z,45.91
2022-11-16T13:14:36.962Z,46.32
2022-11-16T13:17:05.041Z,46.93
2022-11-16T13:19:33.513Z,47.71
2022-11-16T13:22:17.640Z,47.46
2022-11-16T13:24:58.549Z,47.50
2022-11-16T13:28:02.172Z,47.95
2022-11-16T13:30:50.507Z,48.46
2022-11-16T13:33:50.222Z,48.53
2022-11-16T13:36:37.075Z,48.96
2022-11-16T13:39:06.860Z,49.82
2022-11-16T13:41:51.020Z,50.56
2022-11-16T13:44:21.091Z,50.44
2022-11-16T13:47:05.995Z,50.56
2022-11-16T13:49:43.125Z,50.44
2022-11-16T13:52:46.216Z,51.06
2022-11-16T13:55:16.445Z,51.55
2022-11-16T13:57:56.071Z,51.27
2022-11-16T14:00:39.284Z,50.70
2022-11-16T14:03:29.053Z,50.57
2022-11-16T14:05:56.772Z,50.89
2022-11-16T14:08:34.994Z,51.14
2022-11-16T14:11:02.646Z,51.53
2022-11-16T14:13:42.331Z,51.14
2022-11-16T14:16:19.412Z,51.58
2022-11-16T14:18:57.461Z,51.28
2022-11-16T14:22:04.690Z,51.37
2022-11-16T14:24:36.049Z,51.87
2022-11-16T14:27:30.910Z,52.22
2022-11-16T14:30:30.821Z,52.43
2022-11-16T14:32:58.670Z,52.63
2022-11-16T14:35:39.519Z,52.96
2022-11-16T14:38:41.835Z,53.75
2022-11-16T14:41:21.190Z,53.64
2022-11-16T14:43:55.688Z,53.41
2022-11-16T14:46:28.271Z,53.70
2022-11-16T14:48:58.223Z,53.90
2022-11-16T14:51:32.237Z,53.46
2022-11-16T14:54:13.508Z,53.81
2022-11-16T14:57:19.968Z,54.08
2022-11-16T14:59:47.531Z,53.97
2022-11-16T15:02:24.835Z,53.92
2022-11-16T15:04:53.671Z,54.64
2022-11-16T15:07:23.855Z,54.45
2022-11-16T15:09:55.250Z,54.75
2022-11-16T15:12:42.216Z,54.92
2022-11-16T15:15:12.426Z,54.92
2022-11-16T15:17:43.114Z,54.86
2022-11-16T15:20:24.012Z,55.58
2022-11-16T15:22:57.271Z,56.07
2022-11-16T15:26:04.391Z,55.91
2022-11-16T15:28:33.374Z,55.75
2022-11-16T15:31:08.880Z,56.07
2022-11-16T15:33:40.681Z,56.27
2022-11-16T15:36:48.807Z,56.81
2022-11-16T15:39:28.092Z,56.56
2022-11-16T15:42:03.705Z,56.48
2022-11-16T15:44:33.946Z,56.58
2022-11-16T15:47:04.521Z,56.68
2022-11-16T15:49:40.491Z,56.51
2022-11-16T15:52:07.803Z,56.59
2022-11-16T15:54:54.974Z,56.98
2022-11-16T15:57:24.256Z,57.01
2022-11-16T15:59:57.789Z,57.41
2022-11-16T16:02:30.487Z,57.52
2022-11-16T16:04:57.777Z,57.55
2022-11-16T16:07:41.199Z,57.19
2022-11-16T16:10:39.875Z,57.57
2022-11-16T16:13:43.637Z,57.59
2022-11-16T16:16:36.926Z,57.45
2022-11-16T16:19:40.135Z,57.90
2022-11-16T16:22:26.159Z,57.66
2022-11-16T16:24:53.747Z,57.86
2022-11-16T16:27:27.328Z,57.97
2022-11-16T16:29:57.458Z,57.67
2022-11-16T16:32:32.441Z,57.63
2022-11-16T16:35:07.349Z,58.35
2022-11-16T16:37:38.706Z,58.39
2022-11-16T16:40:07.072Z,58.28
2022-11-16T16:42:34.165Z,58.10
2022-11-16T16:45:02.586Z,58.10
2022-11-16T16:47:31.063Z,58.46
2022-11-16T16:50:01.505Z,58.07
2022-11-16T16:52:29.313Z,58.22
2022-11-16T16:54:56.439Z,57.46
2022-11-16T16:57:23.656Z,57.49
2022-11-16T16:59:50.793Z,57.58
2022-11-16T17:02:36.993Z,58.10
2022-11-16T17:05:13.081Z,58.39
2022-11-16T17:07:42.062Z,58.13
2022-11-16T17:10:09.605Z,58.06
2022-11-16T17:12:36.612Z,58.33
2022-11-16T17:15:03.980Z,58.47
2022-11-16T17:17:32.157Z,58.51
2022-11-16T17:19:59.418Z,57.53
2022-11-16T17:22:26.487Z,57.65
2022-11-16T17:24:53.523Z,57.89
2022-11-16T17:27:20.563Z,58.02
2022-11-16T17:29:47.649Z,58.33
2022-11-16T17:32:14.779Z,58.53
2022-11-16T17:34:42.061Z,58.97
2022-11-16T17:37:09.462Z,58.73
2022-11-16T17:39:36.511Z,58.71
2022-11-16T17:42:03.682Z,59.11
2022-11-16T17:44:30.782Z,58.77
2022-11-16T17:46:58.083Z,58.78
2022-11-16T17:49:25.130Z,58.50
2022-11-16T17:51:52.287Z,58.72
2022-11-16T17:54:19.339Z,58.24
2022-11-16T17:56:46.414Z,57.68
2022-11-16T17:59:13.486Z,57.65
2022-11-16T18:01:40.612Z,57.70
2022-11-16T18:04:07.783Z,58.26
2022-11-16T18:06:35.711Z,58.48
2022-11-16T18:09:02.852Z,58.62
2022-11-16T18:11:30.052Z,58.75
2022-11-16T18:14:01.366Z,58.26
2022-11-16T18:16:32.403Z,58.17
2022-11-16T18:19:06.003Z,58.37
2022-11-16T18:21:40.275Z,58.37
2022-11-16T18:24:08.367Z,58.82
2022-11-16T18:26:35.982Z,58.77
2022-11-16T18:29:03.718Z,58.11
2022-11-16T18:31:33.022Z,58.22
2022-11-16T18:34:01.680Z,58.23
2022-11-16T18:36:28.810Z,58.17
2022-11-16T18:38:56.048Z,58.41
2022-11-16T18:41:25.674Z,58.75
2022-11-16T18:43:57.575Z,58.94
2022-11-16T18:46:32.542Z,57.86
2022-11-16T18:49:00.371Z,58.06
2022-11-16T18:51:28.897Z,57.75
2022-11-16T18:53:56.645Z,58.11
2022-11-16T18:56:24.942Z,57.74
2022-11-16T18:58:53.154Z,57.80
2022-11-16T19:01:24.269Z,57.89
2022-11-16T19:03:53.133Z,58.15
2022-11-16T19:06:21.868Z,58.09
2022-11-16T19:08:56.557Z,57.57
2022-11-16T19:11:24.981Z,57.56
2022-11-16T19:13:58.271Z,57.46
2022-11-16T19:16:25.604Z,57.66
2022-11-16T19:18:53.189Z,57.65
2022-11-16T19:21:22.051Z,57.61
2022-11-16T19:23:55.003Z,57.59
2022-11-16T19:26:25.904Z,57.36
2022-11-16T19:28:53.557Z,57.37
2022-11-16T19:31:27.559Z,57.35
2022-11-16T19:34:01.397Z,57.36
2022-11-16T19:36:30.719Z,57.20
2022-11-16T19:38:58.438Z,57.32
2022-11-16T19:41:26.663Z,57.48
2022-11-16T19:43:59.629Z,57.54
2022-11-16T19:46:29.783Z,57.75
2022-11-16T19:48:57.596Z,57.34
2022-11-16T19:51:33.719Z,57.50
2022-11-16T19:54:02.518Z,57.60
2022-11-16T19:56:30.037Z,57.73
2022-11-16T19:59:23.439Z,57.38
2022-11-16T20:02:19.799Z,57.40
2022-11-16T20:04:49.016Z,57.23
2022-11-16T20:07:19.010Z,57.61
2022-11-16T20:09:53.351Z,57.81
2022-11-16T20:12:21.211Z,57.58
2022-11-16T20:14:48.978Z,57.79
2022-11-16T20:17:16.339Z,57.25
2022-11-16T20:19:43.432Z,57.08
2022-11-16T20:22:10.959Z,57.39
2022-11-16T20:24:37.966Z,57.01
2022-11-16T20:27:05.237Z,57.27
2022-11-16T20:29:32.230Z,57.76
2022-11-16T20:31:59.274Z,57.57
2022-11-16T20:34:26.370Z,57.69
2022-11-16T20:36:53.737Z,57.55
2022-11-16T20:39:21.467Z,57.68
2022-11-16T20:41:49.280Z,57.15
2022-11-16T20:44:21.065Z,57.32
2022-11-16T20:46:50.603Z,57.37
2022-11-16T20:49:17.665Z,57.68
2022-11-16T20:51:47.597Z,57.21
2022-11-16T20:54:15.181Z,57.34
2022-11-16T20:56:42.277Z,57.37
2022-11-16T20:59:09.327Z,57.26
2022-11-16T21:01:36.760Z,56.81
2022-11-16T21:04:05.640Z,57.32
2022-11-16T21:06:33.557Z,57.27
2022-11-16T21:09:01.071Z,57.14
2022-11-16T21:11:30.805Z,56.69
2022-11-16T21:14:15.910Z,57.05
2022-11-16T21:16:43.328Z,56.75
2022-11-16T21:19:10.886Z,57.18
2022-11-16T21:21:38.679Z,56.64
2022-11-16T21:24:06.266Z,56.76
2022-11-16T21:26:34.456Z,57.02
2022-11-16T21:29:02.174Z,56.49
2022-11-16T21:31:36.114Z,57.07
2022-11-16T21:34:04.706Z,57.19
2022-11-16T21:36:33.315Z,56.93
2022-11-16T21:39:00.495Z,56.83
2022-11-16T21:41:28.582Z,56.72
2022-11-16T21:43:55.898Z,56.61
2022-11-16T21:46:25.754Z,56.43
2022-11-16T21:48:55.393Z,56.51
2022-11-16T21:51:25.553Z,56.76
2022-11-16T21:53:52.946Z,57.08
2022-11-16T21:56:22.623Z,57.54
2022-11-16T21:58:50.467Z,56.73
2022-11-16T22:01:17.557Z,57.06
2022-11-16T22:03:45.145Z,57.43
2022-11-16T22:06:35.111Z,57.40
2022-11-16T22:09:02.384Z,57.48
2022-11-16T22:11:29.499Z,57.15
2022-11-16T22:13:56.562Z,57.60
2022-11-16T22:16:23.857Z,57.57
2022-11-16T22:18:51.077Z,57.39
2022-11-16T22:21:18.448Z,57.53
2022-11-16T22:23:45.517Z,57.33
2022-11-16T22:26:14.631Z,56.90
2022-11-16T22:28:42.198Z,57.17
2022-11-16T22:31:14.650Z,56.77
2022-11-16T22:33:42.243Z,57.25
2022-11-16T22:36:13.651Z,57.01
2022-11-16T22:38:41.006Z,56.82
2022-11-16T22:41:08.095Z,56.54
2022-11-16T22:43:37.420Z,56.70
2022-11-16T22:46:06.130Z,56.87
2022-11-16T22:48:36.072Z,56.42
2022-11-16T22:51:24.534Z,56.49
2022-11-16T22:54:04.138Z,56.31
2022-11-16T22:56:33.592Z,56.72
2022-11-16T22:59:02.431Z,56.85
2022-11-16T23:01:29.458Z,56.93
2022-11-16T23:03:56.571Z,56.85
2022-11-16T23:06:24.078Z,57.31
2022-11-16T23:08:51.276Z,57.27
2022-11-16T23:11:42.628Z,56.74
2022-11-16T23:14:34.683Z,56.35
2022-11-16T23:17:03.031Z,56.72
2022-11-16T23:19:49.008Z,56.73
2022-11-16T23:22:39.032Z,56.17
2022-11-16T23:25:28.155Z,56.26
2022-11-16T23:28:14.070Z,56.22
2022-11-16T23:30:41.606Z,56.45
2022-11-16T23:33:09.668Z,55.96
2022-11-16T23:35:36.881Z,56.11
2022-11-16T23:38:06.963Z,56.49
2022-11-16T23:40:39.727Z,55.82
2022-11-16T23:43:28.407Z,55.90
2022-11-16T23:45:56.788Z,56.49
2022-11-16T23:48:29.266Z,56.17
2022-11-16T23:50:56.463Z,56.22
2022-11-16T23:53:23.475Z,56.27
2022-11-16T23:55:50.482Z,56.31
2022-11-16T23:58:17.513Z,56.38
